createdAt,value
2023-02-26T07:18:31.999Z,2.66
2023-02-26T07:21:00.766Z,2.97
2023-02-26T07:23:28.193Z,2.99
2023-02-26T07:25:56.448Z,3.05
2023-02-26T07:28:25.024Z,3.16
2023-02-26T07:30:56.902Z,3.33
2023-02-26T07:33:25.064Z,3.58
2023-02-26T07:35:52.343Z,3.53
2023-02-26T07:38:19.903Z,3.72
2023-02-26T07:40:47.995Z,3.79
2023-02-26T07:43:15.296Z,3.82
2023-02-26T07:45:42.567Z,3.71
2023-02-26T07:48:09.864Z,4.02
2023-02-26T07:50:37.196Z,4.14
2023-02-26T07:53:04.531Z,4.05
2023-02-26T07:55:31.928Z,3.89
2023-02-26T07:57:59.196Z,4.21
2023-02-26T08:00:26.934Z,4.52
2023-02-26T08:02:54.357Z,4.51
2023-02-26T08:05:21.649Z,4.33
2023-02-26T08:07:48.913Z,4.33
2023-02-26T08:10:16.306Z,4.32
2023-02-26T08:12:43.594Z,4.46
2023-02-26T08:15:14.403Z,4.42
2023-02-26T08:17:42.354Z,4.50
2023-02-26T08:20:12.021Z,4.60
2023-02-26T08:22:39.637Z,4.86
2023-02-26T08:25:07.992Z,4.93
2023-02-26T08:27:35.348Z,4.64
2023-02-26T08:30:05.265Z,5.02
2023-02-26T08:32:32.582Z,5.16
2023-02-26T08:34:59.951Z,4.95
2023-02-26T08:37:27.313Z,5.08
2023-02-26T08:39:54.720Z,5.07
2023-02-26T08:42:22.010Z,5.19
2023-02-26T08:44:49.462Z,5.00
2023-02-26T08:47:24.542Z,5.16
2023-02-26T08:49:55.232Z,5.33
2023-02-26T08:52:23.185Z,5.32
2023-02-26T08:54:50.801Z,5.27
2023-02-26T08:57:18.475Z,5.40
2023-02-26T08:59:45.795Z,5.56
2023-02-26T09:02:15.970Z,5.50
2023-02-26T09:04:43.255Z,5.50
2023-02-26T09:07:10.686Z,5.62
2023-02-26T09:09:37.996Z,5.78
2023-02-26T09:12:05.841Z,5.96
2023-02-26T09:14:33.149Z,6.06
2023-02-26T09:17:00.495Z,6.03
2023-02-26T09:19:27.825Z,5.96
2023-02-26T09:21:55.941Z,5.83
2023-02-26T09:24:23.541Z,5.88
2023-02-26T09:26:50.891Z,5.95
2023-02-26T09:29:18.189Z,5.99
2023-02-26T09:31:45.652Z,6.00
2023-02-26T09:34:13.756Z,6.22
2023-02-26T09:36:41.257Z,6.04
2023-02-26T09:39:08.879Z,6.16
2023-02-26T09:41:54.630Z,6.01
2023-02-26T09:44:30.531Z,5.97
2023-02-26T09:47:45.592Z,5.91
2023-02-26T09:50:28.413Z,6.00
2023-02-26T09:53:19.569Z,6.68
2023-02-26T09:55:50.794Z,6.82
2023-02-26T09:58:39.273Z,7.06
2023-02-26T10:02:10.392Z,7.51
2023-02-26T10:05:15.137Z,7.65
2023-02-26T10:08:14.396Z,7.26
2023-02-26T10:11:29.311Z,7.28
2023-02-26T10:15:13.335Z,6.88
2023-02-26T10:18:18.190Z,7.22
2023-02-26T10:20:57.990Z,7.19
2023-02-26T10:24:03.853Z,7.81
2023-02-26T10:26:50.103Z,7.20
2023-02-26T10:29:37.776Z,7.47
2023-02-26T10:32:43.313Z,7.97
2023-02-26T10:35:17.791Z,8.31
2023-02-26T10:38:18.033Z,8.34
2023-02-26T10:41:13.410Z,8.42
2023-02-26T10:44:33.535Z,8.70
2023-02-26T10:47:32.487Z,9.25
2023-02-26T10:50:17.853Z,9.86
2023-02-26T10:52:47.641Z,9.39
2023-02-26T10:56:01.855Z,8.91
2023-02-26T10:58:29.196Z,8.81
2023-02-26T11:00:57.767Z,8.29
2023-02-26T11:03:56.481Z,7.59
2023-02-26T11:06:45.611Z,7.44
2023-02-26T11:09:45.454Z,7.04
2023-02-26T11:12:15.724Z,6.88
2023-02-26T11:14:45.598Z,7.16
2023-02-26T11:17:32.354Z,6.58
2023-02-26T11:20:15.352Z,6.87
2023-02-26T11:22:53.463Z,7.02
2023-02-26T11:25:28.002Z,7.80
2023-02-26T11:28:30.107Z,7.78
2023-02-26T11:31:00.622Z,6.81
2023-02-26T11:33:38.776Z,6.52
2023-02-26T11:36:20.076Z,7.00
2023-02-26T11:39:04.321Z,6.97
2023-02-26T11:41:39.536Z,6.51
2023-02-26T11:44:32.185Z,6.30
2023-02-26T11:47:03.163Z,6.43
2023-02-26T11:49:30.636Z,5.95
2023-02-26T11:52:35.854Z,5.88
2023-02-26T11:55:40.030Z,6.28
2023-02-26T11:58:24.215Z,6.19
2023-02-26T12:00:58.496Z,6.07
2023-02-26T12:03:40.946Z,6.08
2023-02-26T12:06:21.163Z,5.68
2023-02-26T12:08:49.091Z,5.73
2023-02-26T12:12:22.313Z,6.44
2023-02-26T12:15:36.247Z,5.94
2023-02-26T12:18:51.093Z,6.13
2023-02-26T12:22:00.710Z,6.24
2023-02-26T12:25:09.228Z,6.25
2023-02-26T12:28:28.746Z,6.29
2023-02-26T12:31:54.411Z,6.42
2023-02-26T12:35:26.517Z,6.26
2023-02-26T12:38:35.004Z,7.33
2023-02-26T12:41:43.062Z,8.06
2023-02-26T12:46:06.244Z,8.60
2023-02-26T12:49:30.394Z,8.12
2023-02-26T12:53:00.818Z,8.21
2023-02-26T12:56:44.825Z,7.53
2023-02-26T13:00:16.102Z,7.71
2023-02-26T13:03:50.182Z,7.30
2023-02-26T13:07:24.140Z,7.10
2023-02-26T13:10:24.284Z,6.89
2023-02-26T13:13:24.901Z,7.08
2023-02-26T13:17:20.799Z,7.12
2023-02-26T13:20:00.548Z,7.15
2023-02-26T13:22:50.136Z,6.29
2023-02-26T13:25:50.713Z,6.38
2023-02-26T13:28:40.136Z,6.56
2023-02-26T13:31:53.386Z,6.34
2023-02-26T13:35:00.966Z,6.52
2023-02-26T13:37:42.321Z,6.14
2023-02-26T13:40:50.193Z,6.28
2023-02-26T13:44:27.495Z,6.31
2023-02-26T13:47:42.799Z,5.59
2023-02-26T13:51:22.341Z,5.98
2023-02-26T13:54:00.820Z,6.32
2023-02-26T13:56:34.040Z,6.07
2023-02-26T13:59:46.859Z,5.95
2023-02-26T14:02:19.944Z,6.02
2023-02-26T14:05:00.228Z,6.06
2023-02-26T14:08:01.024Z,5.98
2023-02-26T14:10:49.741Z,5.86
2023-02-26T14:13:42.061Z,6.09
2023-02-26T14:16:28.821Z,5.95
2023-02-26T14:19:33.489Z,5.65
2023-02-26T14:22:09.373Z,5.96
2023-02-26T14:24:44.511Z,6.15
2023-02-26T14:27:11.548Z,6.04
2023-02-26T14:29:57.159Z,5.77
2023-02-26T14:33:01.454Z,5.66
2023-02-26T14:35:35.598Z,5.89
2023-02-26T14:38:36.509Z,5.64
2023-02-26T14:41:30.031Z,5.69
2023-02-26T14:44:21.823Z,5.76
2023-02-26T14:46:51.525Z,6.06
2023-02-26T14:49:38.398Z,6.21
2023-02-26T14:53:03.230Z,6.19
2023-02-26T14:56:27.125Z,5.93
2023-02-26T15:00:10.795Z,5.66
2023-02-26T15:03:20.991Z,5.63
2023-02-26T15:06:34.097Z,5.93
2023-02-26T15:09:25.640Z,6.05
2023-02-26T15:13:03.808Z,6.18
2023-02-26T15:16:38.139Z,6.31
2023-02-26T15:19:46.635Z,6.30
2023-02-26T15:23:24.999Z,6.22
2023-02-26T15:25:52.620Z,6.47
2023-02-26T15:28:42.065Z,6.57
2023-02-26T15:31:13.743Z,6.54
2023-02-26T15:33:42.473Z,6.42
2023-02-26T15:36:18.816Z,6.13
2023-02-26T15:39:00.140Z,6.06
2023-02-26T15:41:31.942Z,6.19
2023-02-26T15:44:18.923Z,5.96
2023-02-26T15:46:54.572Z,6.00
2023-02-26T15:49:41.021Z,5.72
2023-02-26T15:52:20.599Z,6.02
2023-02-26T15:55:05.806Z,5.79
2023-02-26T15:57:33.375Z,5.91
2023-02-26T16:00:18.042Z,5.78
2023-02-26T16:02:45.781Z,5.26
2023-02-26T16:05:17.021Z,5.46
2023-02-26T16:07:44.355Z,5.48
2023-02-26T16:10:40.639Z,5.77
2023-02-26T16:13:18.068Z,5.55
2023-02-26T16:15:47.458Z,5.60
2023-02-26T16:18:24.189Z,5.16
2023-02-26T16:20:58.963Z,5.41
2023-02-26T16:23:50.894Z,5.89
2023-02-26T16:26:47.023Z,5.79
2023-02-26T16:29:29.961Z,5.65
2023-02-26T16:32:02.308Z,5.68
2023-02-26T16:34:55.707Z,5.92
2023-02-26T16:37:37.773Z,5.99
2023-02-26T16:40:35.682Z,5.95
2023-02-26T16:43:49.506Z,5.81
2023-02-26T16:46:43.867Z,5.94
2023-02-26T16:49:31.615Z,5.78
2023-02-26T16:52:00.830Z,5.63
2023-02-26T16:54:43.154Z,5.61
2023-02-26T16:57:46.123Z,5.09
2023-02-26T17:00:31.603Z,5.26
2023-02-26T17:03:23.857Z,5.38
2023-02-26T17:06:20.395Z,5.08
2023-02-26T17:08:59.840Z,5.10
2023-02-26T17:11:43.456Z,5.14
2023-02-26T17:14:25.792Z,4.98
2023-02-26T17:16:53.499Z,4.92
2023-02-26T17:19:21.182Z,4.94
2023-02-26T17:21:54.775Z,5.35
2023-02-26T17:24:34.835Z,5.17
2023-02-26T17:27:05.487Z,5.32
2023-02-26T17:29:37.583Z,5.43
2023-02-26T17:32:16.027Z,5.29
2023-02-26T17:34:44.835Z,5.54
2023-02-26T17:37:16.717Z,5.50
2023-02-26T17:39:45.441Z,5.46
2023-02-26T17:42:21.436Z,5.41
2023-02-26T17:44:50.366Z,5.37
2023-02-26T17:47:25.862Z,5.58
2023-02-26T17:49:54.246Z,5.39
2023-02-26T17:52:21.642Z,5.41
2023-02-26T17:54:49.037Z,5.23
2023-02-26T17:57:22.082Z,5.12
2023-02-26T17:59:49.508Z,5.35
2023-02-26T18:02:27.216Z,5.29
2023-02-26T18:04:54.923Z,5.34
2023-02-26T18:07:23.971Z,5.43
2023-02-26T18:09:51.381Z,5.40
2023-02-26T18:12:22.435Z,5.00
2023-02-26T18:14:50.243Z,5.17
2023-02-26T18:17:31.124Z,5.14
2023-02-26T18:19:58.650Z,5.31
2023-02-26T18:22:27.661Z,5.16
2023-02-26T18:24:55.878Z,5.11
2023-02-26T18:27:26.316Z,5.17
2023-02-26T18:29:54.559Z,5.11
2023-02-26T18:32:25.376Z,5.17
2023-02-26T18:34:52.875Z,5.05
2023-02-26T18:37:27.055Z,5.14
2023-02-26T18:39:55.792Z,5.35
2023-02-26T18:42:28.430Z,5.36
2023-02-26T18:44:56.130Z,5.12
2023-02-26T18:47:23.684Z,5.33
2023-02-26T18:49:52.005Z,5.21
2023-02-26T18:52:19.642Z,5.57
2023-02-26T18:54:46.947Z,5.31
2023-02-26T18:57:15.254Z,5.27
2023-02-26T18:59:42.971Z,5.25
2023-02-26T19:02:14.034Z,5.29
2023-02-26T19:04:42.372Z,5.17
2023-02-26T19:07:10.139Z,5.39
2023-02-26T19:09:37.560Z,5.23
2023-02-26T19:12:05.795Z,5.01
2023-02-26T19:14:33.878Z,5.02
2023-02-26T19:17:01.485Z,5.18
2023-02-26T19:19:29.037Z,5.00
2023-02-26T19:21:57.761Z,5.24
2023-02-26T19:24:25.062Z,5.07
2023-02-26T19:26:52.500Z,4.80
2023-02-26T19:29:20.797Z,5.13
2023-02-26T19:31:48.305Z,5.28
2023-02-26T19:34:16.211Z,5.28
2023-02-26T19:36:48.147Z,5.29
2023-02-26T19:39:21.395Z,5.11
2023-02-26T19:41:50.452Z,5.14
2023-02-26T19:44:18.104Z,4.88
2023-02-26T19:46:45.533Z,4.98
2023-02-26T19:49:13.607Z,4.79
2023-02-26T19:51:41.435Z,4.70
2023-02-26T19:54:09.814Z,4.78
2023-02-26T19:56:37.283Z,4.83
2023-02-26T19:59:04.701Z,4.62
2023-02-26T20:01:32.301Z,4.49
2023-02-26T20:04:00.932Z,4.88
2023-02-26T20:06:28.850Z,4.65
2023-02-26T20:08:56.287Z,4.91
2023-02-26T20:11:23.669Z,4.77
2023-02-26T20:13:51.081Z,4.76
2023-02-26T20:16:18.504Z,4.54
2023-02-26T20:18:45.974Z,4.61
2023-02-26T20:21:14.118Z,4.70
2023-02-26T20:23:41.879Z,4.48
2023-02-26T20:26:15.080Z,4.82
2023-02-26T20:28:43.136Z,4.78
2023-02-26T20:31:11.568Z,4.63
2023-02-26T20:33:39.592Z,4.80
2023-02-26T20:36:09.611Z,4.78
2023-02-26T20:38:37.806Z,4.84
2023-02-26T20:41:05.912Z,4.84
2023-02-26T20:43:33.611Z,4.88
2023-02-26T20:46:02.190Z,4.93
2023-02-26T20:48:29.717Z,4.92
2023-02-26T20:51:05.871Z,4.72
2023-02-26T20:53:33.418Z,4.88
2023-02-26T20:56:00.991Z,4.70
2023-02-26T20:58:28.739Z,4.54
2023-02-26T21:00:56.955Z,4.68
2023-02-26T21:03:25.114Z,4.69
2023-02-26T21:05:52.816Z,4.77
2023-02-26T21:08:20.431Z,4.68
2023-02-26T21:10:51.992Z,4.80
2023-02-26T21:13:19.981Z,4.72
2023-02-26T21:15:50.204Z,4.79
2023-02-26T21:18:17.550Z,4.71
2023-02-26T21:20:44.847Z,4.63
2023-02-26T21:23:12.399Z,4.64
2023-02-26T21:25:40.107Z,4.65
2023-02-26T21:28:07.456Z,4.54
2023-02-26T21:30:35.863Z,4.83
2023-02-26T21:33:03.521Z,4.76
2023-02-26T21:35:31.017Z,5.02
2023-02-26T21:37:58.382Z,4.82
2023-02-26T21:40:26.618Z,4.62
